createdAt,value
2022-07-30T00:01:38.482Z,65.01
2022-07-30T00:04:10.614Z,64.99
2022-07-30T00:06:42.606Z,64.80
2022-07-30T00:09:14.622Z,64.92
2022-07-30T00:11:46.648Z,65.55
2022-07-30T00:14:18.726Z,65.86
2022-07-30T00:16:50.741Z,66.07
2022-07-30T00:19:22.711Z,66.01
2022-07-30T00:21:55.882Z,66.25
2022-07-30T00:24:27.917Z,66.06
2022-07-30T00:27:00.178Z,66.04
2022-07-30T00:29:32.438Z,65.95
2022-07-30T00:32:04.703Z,66.14
2022-07-30T00:34:36.654Z,66.30
2022-07-30T00:37:08.605Z,66.55
2022-07-30T00:39:40.569Z,66.79
2022-07-30T00:42:12.523Z,66.67
2022-07-30T00:44:44.607Z,66.64
2022-07-30T00:47:16.554Z,67.64
2022-07-30T00:49:48.575Z,67.85
2022-07-30T00:52:20.507Z,67.76
2022-07-30T00:54:52.507Z,67.80
2022-07-30T00:57:24.839Z,67.90
2022-07-30T00:59:58.561Z,68.36
2022-07-30T01:02:30.676Z,68.62
2022-07-30T01:05:02.788Z,68.67
2022-07-30T01:07:35.025Z,69.08
2022-07-30T01:10:09.146Z,69.34
2022-07-30T01:12:42.543Z,69.59
2022-07-30T01:15:15.209Z,69.47
2022-07-30T01:17:53.010Z,69.63
2022-07-30T01:20:31.548Z,70.08
2022-07-30T01:23:28.468Z,70.14
2022-07-30T01:26:09.402Z,69.98
2022-07-30T01:28:47.158Z,70.40
2022-07-30T01:31:20.966Z,70.30
2022-07-30T01:33:55.282Z,70.41
2022-07-30T01:36:28.762Z,70.59
2022-07-30T01:39:01.910Z,70.63
2022-07-30T01:41:35.219Z,71.18
2022-07-30T01:44:08.477Z,71.39
2022-07-30T01:46:41.260Z,71.60
2022-07-30T01:49:15.086Z,71.34
2022-07-30T01:51:52.653Z,71.73
2022-07-30T01:54:27.577Z,71.44
2022-07-30T01:57:02.353Z,72.06
2022-07-30T01:59:37.669Z,71.82
2022-07-30T02:02:09.713Z,72.16
2022-07-30T02:04:42.059Z,72.73
2022-07-30T02:07:49.786Z,72.95
2022-07-30T02:10:46.595Z,73.21
2022-07-30T02:13:23.323Z,73.65
2022-07-30T02:16:13.122Z,73.96
2022-07-30T02:19:01.282Z,73.75
2022-07-30T02:21:50.701Z,74.42
2022-07-30T02:24:27.954Z,74.68
2022-07-30T02:27:11.255Z,74.65
2022-07-30T02:29:45.134Z,74.70
2022-07-30T02:32:21.013Z,75.01
2022-07-30T02:35:01.780Z,75.49
2022-07-30T02:37:41.063Z,75.53
2022-07-30T02:40:19.905Z,75.94
2022-07-30T02:42:53.653Z,75.66
2022-07-30T02:45:26.332Z,76.10
2022-07-30T02:48:06.751Z,76.90
2022-07-30T02:50:40.282Z,76.96
2022-07-30T02:53:14.656Z,77.56
2022-07-30T02:55:48.042Z,77.68
2022-07-30T02:58:25.682Z,77.97
2022-07-30T03:00:58.856Z,78.08
2022-07-30T03:03:32.326Z,77.85
2022-07-30T03:06:06.024Z,77.98
2022-07-30T03:08:38.370Z,78.28
2022-07-30T03:11:12.657Z,78.41
2022-07-30T03:13:45.047Z,78.62
2022-07-30T03:16:18.992Z,78.87
2022-07-30T03:18:53.624Z,79.41
2022-07-30T03:21:27.956Z,80.09
2022-07-30T03:24:03.375Z,80.58
2022-07-30T03:26:37.416Z,80.92
2022-07-30T03:29:10.670Z,80.97
2022-07-30T03:31:43.698Z,81.29
2022-07-30T03:34:19.154Z,81.33
2022-07-30T03:36:52.948Z,81.38
2022-07-30T03:39:25.198Z,81.06
2022-07-30T03:41:57.397Z,81.41
2022-07-30T03:44:31.298Z,81.32
2022-07-30T03:47:05.854Z,81.30
2022-07-30T03:49:38.267Z,81.25
2022-07-30T03:52:10.840Z,81.69
2022-07-30T03:54:43.939Z,81.48
2022-07-30T03:57:19.390Z,81.69
2022-07-30T03:59:52.755Z,81.80
2022-07-30T04:02:25.071Z,81.67
2022-07-30T04:04:57.094Z,81.82
2022-07-30T04:07:29.077Z,81.91
2022-07-30T04:10:01.031Z,81.86
2022-07-30T04:12:33.058Z,81.91
2022-07-30T04:16:37.946Z,82.00
2022-07-30T04:18:03.092Z,82.59
2022-07-30T04:20:42.426Z,82.55
2022-07-30T04:23:15.690Z,82.66
2022-07-30T04:25:48.705Z,82.85
2022-07-30T04:28:21.064Z,82.58
2022-07-30T04:30:53.949Z,82.42
2022-07-30T04:33:25.998Z,82.56
2022-07-30T04:35:58.001Z,82.91
2022-07-30T04:38:29.955Z,83.01
2022-07-30T04:41:02.227Z,83.54
2022-07-30T04:43:34.296Z,83.29
2022-07-30T04:46:06.314Z,83.51
2022-07-30T04:48:38.670Z,82.79
2022-07-30T04:51:20.739Z,83.17
2022-07-30T04:53:54.108Z,82.79
2022-07-30T04:56:26.645Z,82.88
2022-07-30T04:58:59.279Z,82.49
2022-07-30T05:01:40.215Z,82.50
2022-07-30T05:04:14.041Z,82.22
2022-07-30T05:06:46.603Z,82.51
2022-07-30T05:09:18.776Z,82.26
2022-07-30T05:11:53.138Z,81.77
2022-07-30T05:14:25.953Z,82.14
2022-07-30T05:16:58.487Z,81.46
2022-07-30T05:19:30.661Z,81.36
2022-07-30T05:22:06.604Z,80.89
2022-07-30T05:24:38.820Z,81.30
2022-07-30T05:27:10.830Z,80.82
2022-07-30T05:29:42.777Z,80.38
2022-07-30T05:32:15.549Z,80.21
2022-07-30T05:34:50.004Z,80.82
2022-07-30T05:37:22.202Z,80.40
2022-07-30T05:40:02.289Z,79.92
2022-07-30T05:42:35.464Z,79.29
2022-07-30T05:45:08.110Z,79.49
2022-07-30T05:47:40.096Z,79.58
2022-07-30T05:50:12.914Z,79.27
2022-07-30T05:52:44.862Z,79.30
2022-07-30T05:55:16.880Z,79.49
2022-07-30T05:57:48.862Z,79.75
2022-07-30T06:00:20.841Z,79.43
2022-07-30T06:02:52.796Z,80.12
2022-07-30T06:05:24.863Z,80.45
2022-07-30T06:07:56.800Z,80.50
2022-07-30T06:10:28.969Z,80.67
2022-07-30T06:13:00.911Z,80.59
2022-07-30T06:15:33.055Z,80.69
2022-07-30T06:18:05.057Z,80.16
2022-07-30T06:20:38.139Z,79.50
2022-07-30T06:23:10.111Z,79.36
2022-07-30T06:25:42.231Z,78.64
2022-07-30T06:28:36.419Z,79.10
2022-07-30T06:31:08.122Z,80.05
2022-07-30T06:33:40.178Z,80.50
2022-07-30T06:36:13.890Z,79.22
2022-07-30T06:38:46.204Z,79.43
2022-07-30T06:41:18.208Z,79.29
2022-07-30T06:43:51.136Z,79.95
2022-07-30T06:46:23.161Z,78.69
2022-07-30T06:48:55.189Z,78.27
2022-07-30T06:51:27.214Z,77.84
2022-07-30T06:53:59.218Z,76.76
2022-07-30T06:56:31.171Z,76.84
2022-07-30T06:59:03.346Z,76.06
2022-07-30T07:01:35.492Z,76.34
2022-07-30T07:04:07.772Z,75.84
2022-07-30T07:06:39.809Z,75.63
2022-07-30T07:09:12.040Z,74.88
2022-07-30T07:11:43.984Z,73.59
2022-07-30T07:14:16.128Z,72.07
2022-07-30T07:16:49.790Z,71.79
2022-07-30T07:20:01.719Z,70.88
2022-07-30T07:22:13.769Z,70.96
2022-07-30T07:24:46.715Z,70.26
2022-07-30T07:27:21.211Z,69.67
2022-07-30T07:30:01.294Z,69.70
2022-07-30T07:32:37.380Z,68.89
2022-07-30T07:35:09.881Z,67.46
2022-07-30T07:37:42.335Z,68.59
2022-07-30T07:40:14.330Z,67.59
2022-07-30T07:42:46.282Z,65.09
2022-07-30T07:45:18.528Z,63.78
2022-07-30T07:47:53.190Z,63.52
2022-07-30T07:50:25.526Z,63.08
2022-07-30T07:52:57.566Z,63.68
2022-07-30T07:55:32.254Z,63.20
2022-07-30T07:58:05.663Z,63.23
2022-07-30T08:00:37.742Z,62.59
2022-07-30T08:03:09.715Z,62.05
2022-07-30T08:05:56.980Z,63.27
2022-07-30T08:08:33.948Z,63.73
2022-07-30T08:11:07.162Z,63.34
2022-07-30T08:13:51.631Z,63.18
2022-07-30T08:16:24.334Z,60.71
2022-07-30T08:18:56.318Z,61.75
2022-07-30T08:21:28.272Z,61.89
2022-07-30T08:24:00.258Z,61.71
2022-07-30T08:26:32.292Z,62.23
2022-07-30T08:29:04.366Z,62.03
2022-07-30T08:31:36.304Z,61.95
2022-07-30T08:34:08.311Z,62.21
2022-07-30T08:36:40.690Z,61.59
2022-07-30T08:39:12.661Z,60.42
2022-07-30T08:41:45.255Z,59.84
2022-07-30T08:44:19.465Z,59.38
2022-07-30T08:46:56.429Z,58.78
2022-07-30T08:49:28.800Z,57.76
2022-07-30T08:52:01.442Z,56.10
2022-07-30T08:54:33.702Z,56.11
2022-07-30T08:57:06.118Z,55.13
2022-07-30T09:00:00.198Z,55.08
2022-07-30T09:02:32.779Z,53.93
2022-07-30T09:05:05.955Z,54.28
2022-07-30T09:07:38.736Z,54.32
2022-07-30T09:10:11.297Z,53.14
2022-07-30T09:12:46.202Z,53.67
2022-07-30T09:15:22.462Z,53.76
2022-07-30T09:18:02.576Z,51.07
2022-07-30T09:20:36.348Z,52.58
2022-07-30T09:23:08.327Z,52.65
2022-07-30T09:25:44.508Z,52.05
2022-07-30T09:28:28.513Z,53.31
2022-07-30T09:31:01.124Z,53.17
2022-07-30T09:33:40.353Z,52.37
2022-07-30T09:36:17.067Z,51.80
2022-07-30T09:38:54.362Z,50.74
2022-07-30T09:41:39.599Z,49.47
2022-07-30T09:44:24.713Z,47.89
2022-07-30T09:46:58.221Z,47.21
2022-07-30T09:49:30.747Z,48.68
2022-07-30T09:52:02.912Z,47.85
2022-07-30T09:54:51.705Z,46.11
2022-07-30T09:57:27.535Z,46.73
2022-07-30T10:00:23.621Z,44.21
2022-07-30T10:02:56.777Z,45.24
2022-07-30T10:05:29.546Z,44.94
2022-07-30T10:08:09.498Z,45.67
2022-07-30T10:10:50.910Z,46.69
2022-07-30T10:13:23.261Z,47.09
2022-07-30T10:16:04.588Z,45.88
2022-07-30T10:18:42.141Z,47.07
2022-07-30T10:21:16.866Z,46.33
2022-07-30T10:23:50.732Z,46.24
2022-07-30T10:26:23.325Z,44.02
2022-07-30T10:28:55.949Z,43.44
2022-07-30T10:31:48.639Z,42.44
2022-07-30T10:34:23.601Z,40.44
2022-07-30T10:37:06.532Z,40.75
2022-07-30T10:39:49.866Z,40.64
2022-07-30T10:42:44.189Z,41.08
2022-07-30T10:45:43.778Z,41.31
2022-07-30T10:48:19.744Z,38.20
2022-07-30T10:50:57.328Z,37.92
2022-07-30T10:53:48.433Z,37.40
2022-07-30T10:56:25.793Z,36.02
2022-07-30T10:58:57.977Z,36.40
2022-07-30T11:01:53.589Z,36.95
2022-07-30T11:04:30.429Z,35.25
2022-07-30T11:07:35.137Z,35.76
2022-07-30T11:10:09.556Z,32.06
2022-07-30T11:12:45.759Z,31.47
2022-07-30T11:15:18.639Z,29.78
2022-07-30T11:18:12.665Z,27.96
2022-07-30T11:21:21.279Z,27.09
2022-07-30T11:23:54.927Z,25.27
2022-07-30T11:26:41.951Z,25.51
2022-07-30T11:29:50.772Z,24.87
2022-07-30T11:32:34.007Z,24.90
2022-07-30T11:35:14.898Z,24.73
2022-07-30T11:38:09.534Z,23.37
2022-07-30T11:41:03.142Z,23.09
2022-07-30T11:43:41.641Z,21.55
2022-07-30T11:46:18.059Z,20.67
2022-07-30T11:49:05.847Z,22.00
2022-07-30T11:51:46.932Z,21.00
2022-07-30T11:54:19.065Z,19.61
2022-07-30T11:57:04.320Z,20.87
2022-07-30T11:59:54.585Z,23.25
2022-07-30T12:02:28.905Z,24.88
2022-07-30T12:05:00.961Z,27.12
2022-07-30T12:07:33.210Z,28.77
2022-07-30T12:10:26.860Z,30.82
2022-07-30T12:13:12.783Z,31.40
2022-07-30T12:15:47.149Z,31.51
2022-07-30T12:18:30.541Z,31.54
2022-07-30T12:21:12.896Z,30.67
2022-07-30T12:24:03.030Z,31.60
2022-07-30T12:26:35.748Z,31.62
2022-07-30T12:29:11.883Z,31.83
2022-07-30T12:31:46.238Z,32.77
2022-07-30T12:34:23.796Z,33.40
2022-07-30T12:36:55.837Z,34.55
2022-07-30T12:39:28.097Z,35.05
2022-07-30T12:42:00.611Z,35.12
2022-07-30T12:44:46.791Z,34.75
2022-07-30T12:47:27.973Z,35.14
2022-07-30T12:50:01.891Z,35.97
2022-07-30T12:52:36.008Z,35.50
2022-07-30T12:55:11.678Z,36.75
2022-07-30T12:58:08.459Z,37.17
2022-07-30T13:00:54.928Z,36.83
2022-07-30T13:03:29.362Z,37.09
2022-07-30T13:06:02.240Z,36.45
2022-07-30T13:08:57.750Z,37.33
2022-07-30T13:11:42.273Z,37.03
2022-07-30T13:14:24.646Z,37.52
2022-07-30T13:16:59.159Z,37.48
2022-07-30T13:19:31.248Z,36.75
2022-07-30T13:22:03.289Z,36.52
2022-07-30T13:24:35.237Z,37.32
2022-07-30T13:27:07.669Z,37.10
2022-07-30T13:29:43.278Z,37.06
2022-07-30T13:32:15.265Z,37.58
2022-07-30T13:34:47.237Z,37.35
2022-07-30T13:37:19.181Z,36.43
2022-07-30T13:39:51.164Z,37.81
2022-07-30T13:42:23.173Z,37.27
2022-07-30T13:44:55.148Z,37.95
2022-07-30T13:47:27.134Z,37.55
2022-07-30T13:49:59.120Z,37.80
2022-07-30T13:52:31.104Z,38.47
2022-07-30T13:55:03.244Z,38.40
2022-07-30T13:57:35.206Z,38.12
2022-07-30T14:00:09.491Z,39.38
2022-07-30T14:02:41.562Z,38.59
2022-07-30T14:05:13.803Z,38.48
2022-07-30T14:07:45.763Z,38.02
2022-07-30T14:10:17.946Z,37.39
2022-07-30T14:12:55.215Z,37.63
2022-07-30T14:15:31.149Z,38.16
2022-07-30T14:18:03.659Z,38.02
2022-07-30T14:20:35.753Z,38.51
2022-07-30T14:23:07.727Z,38.37
2022-07-30T14:25:40.759Z,38.60
2022-07-30T14:28:13.010Z,39.08
2022-07-30T14:30:45.125Z,39.71
2022-07-30T14:33:17.356Z,38.71
2022-07-30T14:35:49.372Z,38.35
2022-07-30T14:38:22.357Z,38.80
2022-07-30T14:40:59.051Z,37.84
2022-07-30T14:43:31.342Z,37.95
2022-07-30T14:46:03.305Z,37.29
2022-07-30T14:48:35.261Z,36.37
2022-07-30T14:51:17.694Z,36.22
2022-07-30T14:53:52.824Z,36.71
2022-07-30T14:56:25.258Z,35.16
2022-07-30T14:58:57.327Z,35.52
2022-07-30T15:01:29.334Z,36.10
2022-07-30T15:04:01.439Z,36.45
2022-07-30T15:06:33.373Z,36.76
2022-07-30T15:09:05.378Z,36.78
2022-07-30T15:12:04.180Z,36.89
2022-07-30T15:14:29.603Z,37.69
2022-07-30T15:17:04.307Z,37.79
2022-07-30T15:19:36.582Z,37.61
2022-07-30T15:22:08.698Z,37.34
2022-07-30T15:24:40.863Z,37.62
2022-07-30T15:27:12.905Z,37.67
2022-07-30T15:29:44.861Z,37.71
2022-07-30T15:32:17.327Z,37.64
2022-07-30T15:34:49.524Z,38.14
2022-07-30T15:37:25.095Z,38.79
2022-07-30T15:39:57.183Z,38.67
2022-07-30T15:42:30.040Z,38.86
2022-07-30T15:45:21.397Z,39.07
2022-07-30T15:47:53.378Z,38.46
2022-07-30T15:50:25.357Z,38.52
2022-07-30T15:52:57.459Z,39.20
2022-07-30T15:55:29.533Z,38.65
2022-07-30T15:58:05.514Z,38.36
2022-07-30T16:00:37.757Z,38.52
2022-07-30T16:03:13.093Z,38.52
2022-07-30T16:05:52.174Z,38.48
2022-07-30T16:08:24.618Z,38.79
2022-07-30T16:10:56.626Z,39.26
2022-07-30T16:13:28.572Z,38.58
2022-07-30T16:16:00.697Z,38.82
2022-07-30T16:18:32.730Z,39.48
2022-07-30T16:21:04.718Z,38.96
2022-07-30T16:23:38.856Z,39.15
2022-07-30T16:26:12.352Z,39.37
2022-07-30T16:28:44.278Z,38.76
2022-07-30T16:31:17.831Z,39.20
2022-07-30T16:33:50.457Z,39.59
2022-07-30T16:36:22.474Z,40.22
2022-07-30T16:38:54.471Z,39.71
2022-07-30T16:41:26.661Z,39.70
2022-07-30T16:43:58.693Z,38.97
2022-07-30T16:46:30.695Z,39.49
2022-07-30T16:49:02.773Z,40.02
2022-07-30T16:51:35.248Z,39.74
2022-07-30T16:54:07.776Z,40.13
2022-07-30T16:56:39.771Z,39.66
2022-07-30T16:59:13.888Z,41.01
2022-07-30T17:01:47.366Z,42.80
2022-07-30T17:04:19.429Z,44.47
2022-07-30T17:06:51.757Z,44.86
2022-07-30T17:09:23.769Z,46.07
2022-07-30T17:11:59.304Z,47.60
2022-07-30T17:14:31.454Z,47.57
2022-07-30T17:17:03.558Z,48.52
2022-07-30T17:19:35.536Z,49.32
2022-07-30T17:22:07.588Z,50.17
2022-07-30T17:24:39.983Z,51.77
2022-07-30T17:27:11.970Z,52.44
2022-07-30T17:29:50.146Z,53.55
2022-07-30T17:32:23.354Z,55.12
2022-07-30T17:34:55.605Z,55.92
2022-07-30T17:37:27.583Z,56.62
2022-07-30T17:40:26.394Z,57.13
2022-07-30T17:42:51.481Z,58.35
2022-07-30T17:45:23.432Z,58.19
2022-07-30T17:47:55.403Z,58.56
2022-07-30T17:50:27.801Z,59.34
2022-07-30T17:53:03.478Z,59.73
2022-07-30T17:55:35.877Z,60.11
2022-07-30T17:58:07.853Z,60.73
2022-07-30T18:00:40.189Z,61.24
2022-07-30T18:03:12.167Z,61.90
2022-07-30T18:05:44.862Z,62.65
2022-07-30T18:08:17.219Z,63.40
2022-07-30T18:10:50.202Z,63.79
2022-07-30T18:13:26.631Z,64.36
2022-07-30T18:15:59.302Z,64.39
2022-07-30T18:18:31.402Z,64.51
2022-07-30T18:21:03.932Z,63.93
2022-07-30T18:23:36.288Z,64.31
2022-07-30T18:26:08.528Z,64.27
2022-07-30T18:28:41.776Z,64.47
2022-07-30T18:31:13.724Z,64.24
2022-07-30T18:33:45.747Z,63.88
2022-07-30T18:36:17.720Z,64.06
2022-07-30T18:38:49.852Z,66.81
2022-07-30T18:41:23.865Z,69.55
2022-07-30T18:43:56.003Z,70.18
2022-07-30T18:46:28.088Z,71.28
2022-07-30T18:49:10.840Z,72.98
2022-07-30T18:51:52.416Z,73.80
2022-07-30T18:54:24.929Z,74.01
2022-07-30T18:56:56.967Z,74.35
2022-07-30T18:59:29.320Z,73.94
2022-07-30T19:02:02.021Z,74.31
2022-07-30T19:04:35.013Z,74.12
2022-07-30T19:07:07.437Z,74.89
2022-07-30T19:09:39.493Z,73.79
2022-07-30T19:12:11.963Z,74.36
2022-07-30T19:14:44.669Z,74.35
2022-07-30T19:17:16.679Z,74.32
2022-07-30T19:19:49.252Z,73.87
2022-07-30T19:22:29.713Z,73.39
2022-07-30T19:25:03.138Z,74.03
2022-07-30T19:27:35.153Z,74.17
2022-07-30T19:30:08.576Z,74.10
2022-07-30T19:32:40.675Z,74.29
2022-07-30T19:35:14.508Z,74.60
2022-07-30T19:37:47.069Z,74.83
2022-07-30T19:40:19.161Z,74.17
2022-07-30T19:42:55.832Z,74.26
2022-07-30T19:45:46.733Z,74.31
2022-07-30T19:48:28.452Z,74.04
2022-07-30T19:51:01.868Z,73.99
2022-07-30T19:53:34.506Z,73.72
2022-07-30T19:56:10.725Z,73.57
2022-07-30T19:58:43.455Z,73.58
2022-07-30T20:01:16.776Z,73.90
2022-07-30T20:03:48.786Z,74.15
2022-07-30T20:06:22.191Z,74.97
2022-07-30T20:08:54.167Z,75.53
2022-07-30T20:11:36.238Z,76.75
2022-07-30T20:14:08.736Z,77.11
2022-07-30T20:16:40.813Z,76.97
2022-07-30T20:19:15.595Z,76.85
2022-07-30T20:21:57.441Z,77.56
2022-07-30T20:24:40.131Z,77.72
2022-07-30T20:27:36.288Z,77.43
2022-07-30T20:30:05.381Z,76.30
2022-07-30T20:32:42.303Z,76.12
2022-07-30T20:35:20.073Z,75.48
2022-07-30T20:37:54.764Z,75.12
2022-07-30T20:40:27.802Z,75.06
2022-07-30T20:43:02.666Z,74.34
2022-07-30T20:45:37.806Z,74.13
2022-07-30T20:48:16.925Z,73.99
2022-07-30T20:50:49.651Z,73.83
2022-07-30T20:53:23.137Z,73.96
2022-07-30T20:55:55.308Z,74.20
2022-07-30T20:58:27.346Z,74.57
2022-07-30T21:00:59.356Z,74.70
2022-07-30T21:03:31.751Z,74.78
2022-07-30T21:06:04.662Z,74.61
2022-07-30T21:08:38.819Z,74.30
2022-07-30T21:11:12.568Z,74.65
2022-07-30T21:13:44.772Z,74.39
2022-07-30T21:16:18.219Z,74.81
2022-07-30T21:18:50.830Z,74.38
2022-07-30T21:21:30.791Z,74.31
2022-07-30T21:24:20.082Z,74.68
2022-07-30T21:26:53.911Z,74.40
2022-07-30T21:29:27.664Z,74.46
2022-07-30T21:32:02.980Z,74.05
2022-07-30T21:34:42.287Z,74.12
2022-07-30T21:37:15.787Z,73.62
2022-07-30T21:39:48.128Z,73.76
2022-07-30T21:42:30.354Z,74.65
2022-07-30T21:45:02.487Z,74.31
2022-07-30T21:47:35.294Z,73.89
2022-07-30T21:50:08.237Z,74.24
2022-07-30T21:52:41.066Z,74.00
2022-07-30T21:55:13.894Z,74.10
2022-07-30T21:57:45.916Z,73.96
2022-07-30T22:00:22.358Z,73.40
2022-07-30T22:02:54.546Z,73.51
2022-07-30T22:05:39.027Z,73.18
2022-07-30T22:08:13.935Z,73.39
2022-07-30T22:10:48.311Z,72.64
2022-07-30T22:13:24.235Z,72.97
2022-07-30T22:16:01.933Z,72.77
2022-07-30T22:18:34.053Z,72.76
2022-07-30T22:21:06.044Z,72.42
2022-07-30T22:23:39.159Z,72.78
2022-07-30T22:26:11.170Z,72.93
2022-07-30T22:28:43.179Z,72.82
2022-07-30T22:31:17.264Z,72.85
2022-07-30T22:33:51.057Z,73.05
2022-07-30T22:36:25.256Z,72.82
2022-07-30T22:38:58.740Z,73.12
2022-07-30T22:41:31.342Z,73.33
2022-07-30T22:44:03.433Z,73.92
2022-07-30T22:46:35.926Z,73.95
2022-07-30T22:49:23.334Z,73.83
2022-07-30T22:52:06.552Z,74.49
2022-07-30T22:54:50.952Z,74.11
2022-07-30T22:57:23.451Z,74.21
2022-07-30T22:59:58.328Z,74.31
2022-07-30T23:02:30.976Z,74.34
2022-07-30T23:05:03.283Z,74.84
2022-07-30T23:07:38.902Z,74.73
2022-07-30T23:12:31.000Z,74.89
2022-07-30T23:16:00.083Z,74.66
2022-07-30T23:18:32.251Z,74.46
2022-07-30T23:21:04.953Z,74.37
2022-07-30T23:23:37.183Z,74.19
2022-07-30T23:26:09.351Z,74.22
2022-07-30T23:28:41.339Z,74.29
2022-07-30T23:31:14.175Z,73.98
2022-07-30T23:33:46.343Z,73.99
2022-07-30T23:36:18.538Z,74.16
2022-07-30T23:38:50.596Z,74.00
2022-07-30T23:41:29.956Z,73.98
2022-07-30T23:44:02.673Z,73.72
2022-07-30T23:46:37.121Z,74.22
2022-07-30T23:49:09.118Z,74.47
2022-07-30T23:51:41.419Z,74.31
2022-07-30T23:54:13.357Z,74.71
2022-07-30T23:56:45.872Z,75.12
2022-07-30T23:59:17.924Z,74.84
